Time;durP1;ratioP1;P1;durP2;ratioP2;P2;SDS_P1;SDS_P2;PMS_P1;PMS_P2;Temp;Humidity;BMP_temperature;BMP_pressure;BME280_temperature;BME280_humidity;BME280_pressure;Samples;Min_cycle;Max_cycle;Signal;HPM_P1;HPM_P2
2022/04/22 00:00:37;;;;;;;6.97;4.43;;;;;;;;;;4979075;28;20830;-82
2022/04/22 00:03:05;;;;;;;7.30;4.07;;;;;;;;;;4974600;28;20391;-82
2022/04/22 00:05:33;;;;;;;6.00;3.92;;;;;;;;;;4970289;28;20383;-82
2022/04/22 00:08:00;;;;;;;6.47;3.80;;;;;;;;;;4984496;28;20383;-81
2022/04/22 00:10:29;;;;;;;8.30;4.33;;;;;;;;;;4969514;28;21033;-82
2022/04/22 00:12:57;;;;;;;6.13;4.03;;;;;;;;;;4968509;28;20896;-82
2022/04/22 00:15:25;;;;;;;6.63;4.10;;;;;;;;;;4984845;28;20398;-82
2022/04/22 00:17:52;;;;;;;7.47;4.32;;;;;;;;;;4983778;28;20477;-82
2022/04/22 00:20:21;;;;;;;7.15;4.28;;;;;;;;;;4984075;28;20410;-82
2022/04/22 00:22:48;;;;;;;5.38;3.83;;;;;;;;;;4969821;28;20366;-82
2022/04/22 00:25:17;;;;;;;7.10;4.10;;;;;;;;;;4969816;28;20437;-82
2022/04/22 00:27:46;;;;;;;6.07;3.93;;;;;;;;;;4969400;28;20900;-82
2022/04/22 00:30:15;;;;;;;7.35;4.22;;;;;;;;;;4969777;28;20383;-82
2022/04/22 00:32:44;;;;;;;9.95;4.47;;;;;;;;;;4969688;28;20434;-82
2022/04/22 00:35:15;;;;;;;9.55;4.85;;;;;;;;;;4969426;28;20391;-80
2022/04/22 00:37:46;;;;;;;8.75;5.15;;;;;;;;;;4970314;28;20912;-82
2022/04/22 00:40:16;;;;;;;7.32;4.57;;;;;;;;;;4969502;28;20494;-82
2022/04/22 00:42:46;;;;;;;8.17;4.53;;;;;;;;;;4952161;28;20390;-82
2022/04/22 00:45:18;;;;;;;9.73;5.15;;;;;;;;;;4969659;28;20386;-82
2022/04/22 00:47:47;;;;;;;9.07;4.70;;;;;;;;;;4969680;28;20382;-81
2022/04/22 00:50:17;;;;;;;8.07;5.50;;;;;;;;;;4952094;28;20707;-82
2022/04/22 00:52:46;;;;;;;8.45;5.22;;;;;;;;;;4952413;28;20387;-81
2022/04/22 00:55:17;;;;;;;11.00;5.22;;;;;;;;;;4952044;28;20394;-82
2022/04/22 00:57:46;;;;;;;9.50;5.85;;;;;;;;;;4969194;28;20405;-82
2022/04/22 01:00:15;;;;;;;9.00;5.25;;;;;;;;;;4952215;28;20421;-81
2022/04/22 01:02:44;;;;;;;10.05;5.63;;;;;;;;;;4952436;28;20387;-82
2022/04/22 01:10:51;;;;;;;9.38;6.07;;;;;;;;;;4969223;28;20745;-82
2022/04/22 01:13:21;;;;;;;13.30;6.63;;;;;;;;;;4951936;28;20748;-81
2022/04/22 01:15:50;;;;;;;11.23;6.53;;;;;;;;;;4952006;28;20446;-82
2022/04/22 01:18:21;;;;;;;12.07;6.60;;;;;;;;;;4952405;28;20386;-81
2022/04/22 01:20:50;;;;;;;10.90;6.15;;;;;;;;;;4968646;28;20410;-82
2022/04/22 01:23:19;;;;;;;11.60;6.82;;;;;;;;;;4969066;28;20383;-82
2022/04/22 01:25:48;;;;;;;10.65;6.45;;;;;;;;;;4952034;28;20395;-82
2022/04/22 01:28:17;;;;;;;10.95;6.95;;;;;;;;;;4951519;28;20391;-82
2022/04/22 01:30:48;;;;;;;13.73;6.75;;;;;;;;;;4954823;28;20941;-82
2022/04/22 01:33:17;;;;;;;13.40;6.93;;;;;;;;;;4972719;28;20390;-82
2022/04/22 01:35:48;;;;;;;11.18;6.93;;;;;;;;;;4955320;28;20445;-82
2022/04/22 01:38:17;;;;;;;11.60;6.78;;;;;;;;;;4972856;28;21097;-81
2022/04/22 01:40:48;;;;;;;13.05;7.60;;;;;;;;;;4990684;28;20417;-81
2022/04/22 01:43:18;;;;;;;13.20;7.77;;;;;;;;;;4973823;28;20404;-82
2022/04/22 01:45:47;;;;;;;14.85;7.60;;;;;;;;;;4991482;28;20801;-81
2022/04/22 01:48:16;;;;;;;12.40;7.82;;;;;;;;;;4992231;28;20497;-81
2022/04/22 01:50:45;;;;;;;12.65;7.95;;;;;;;;;;4974272;28;20432;-81
2022/04/22 01:53:15;;;;;;;16.13;8.45;;;;;;;;;;4991780;28;20376;-82
2022/04/22 01:55:44;;;;;;;11.32;7.70;;;;;;;;;;4974486;28;20428;-82
2022/04/22 01:58:13;;;;;;;16.33;8.57;;;;;;;;;;4973744;28;20397;-82
2022/04/22 02:00:42;;;;;;;13.93;8.35;;;;;;;;;;4991360;28;20387;-82
2022/04/22 02:03:12;;;;;;;15.90;8.77;;;;;;;;;;4974328;28;20385;-82
2022/04/22 02:05:41;;;;;;;12.25;8.23;;;;;;;;;;4991715;28;20381;-81
2022/04/22 02:08:10;;;;;;;14.55;8.93;;;;;;;;;;4973963;28;20380;-82
2022/04/22 02:10:43;;;;;;;13.93;8.32;;;;;;;;;;4991868;28;20373;-81
2022/04/22 02:13:12;;;;;;;13.43;8.90;;;;;;;;;;4974003;28;20902;-82
2022/04/22 02:15:42;;;;;;;17.63;9.27;;;;;;;;;;4991370;28;20457;-81
2022/04/22 02:18:11;;;;;;;13.77;9.60;;;;;;;;;;4974863;28;20397;-81
2022/04/22 02:20:40;;;;;;;13.98;9.10;;;;;;;;;;4973560;28;20389;-82
2022/04/22 02:23:10;;;;;;;18.30;10.50;;;;;;;;;;4990955;28;20486;-82
2022/04/22 02:25:39;;;;;;;14.82;9.45;;;;;;;;;;4991448;28;20401;-82
2022/04/22 02:30:56;;;;;;;16.27;9.10;;;;;;;;;;4991535;28;20556;-81
2022/04/22 02:33:26;;;;;;;15.07;10.05;;;;;;;;;;4974120;28;20408;-82
2022/04/22 02:35:55;;;;;;;14.60;9.50;;;;;;;;;;4990800;28;20389;-82
2022/04/22 02:38:24;;;;;;;15.90;10.20;;;;;;;;;;4973416;28;20422;-82
2022/04/22 02:46:30;;;;;;;18.83;10.65;;;;;;;;;;4971636;28;20506;-81
2022/04/22 02:49:03;;;;;;;17.63;10.13;;;;;;;;;;4971509;28;20389;-82
2022/04/22 02:51:33;;;;;;;16.23;10.50;;;;;;;;;;4954340;28;20371;-82
2022/04/22 02:54:02;;;;;;;14.25;10.30;;;;;;;;;;4953909;28;20382;-82
2022/04/22 02:56:33;;;;;;;16.38;10.73;;;;;;;;;;4970920;28;20469;-82
2022/04/22 02:59:03;;;;;;;17.98;11.68;;;;;;;;;;4971333;28;20415;-82
2022/04/22 03:01:32;;;;;;;18.38;11.10;;;;;;;;;;4963557;28;20779;-82
2022/04/22 03:04:01;;;;;;;16.63;10.90;;;;;;;;;;4975475;28;20415;-82
2022/04/22 03:06:31;;;;;;;16.17;10.85;;;;;;;;;;4974077;28;20429;-81
2022/04/22 03:09:00;;;;;;;18.43;11.47;;;;;;;;;;4992581;28;20412;-82
2022/04/22 03:11:30;;;;;;;18.05;11.68;;;;;;;;;;4973746;28;20388;-82
2022/04/22 03:14:05;;;;;;;19.05;11.77;;;;;;;;;;4991017;28;20408;-82
2022/04/22 03:16:37;;;;;;;20.20;12.10;;;;;;;;;;4973081;28;20389;-82
2022/04/22 03:19:09;;;;;;;17.48;12.40;;;;;;;;;;4990391;28;20875;-82
2022/04/22 03:21:40;;;;;;;19.40;12.60;;;;;;;;;;4989365;28;20389;-81
2022/04/22 03:24:11;;;;;;;16.67;12.33;;;;;;;;;;4989833;28;20756;-81
2022/04/22 03:26:43;;;;;;;28.08;12.50;;;;;;;;;;4989959;28;20459;-81
2022/04/22 03:29:14;;;;;;;20.80;13.13;;;;;;;;;;4971606;28;20388;-82
2022/04/22 03:31:42;;;;;;;19.50;13.00;;;;;;;;;;4990083;28;20965;-82
2022/04/22 03:34:14;;;;;;;20.35;12.30;;;;;;;;;;4972602;28;20381;-82
2022/04/22 03:36:42;;;;;;;22.92;13.48;;;;;;;;;;4989773;28;20863;-82
2022/04/22 03:39:11;;;;;;;20.98;13.30;;;;;;;;;;4968982;28;20383;-82
2022/04/22 03:41:40;;;;;;;20.90;14.18;;;;;;;;;;4970609;28;20444;-82
2022/04/22 03:44:11;;;;;;;17.87;13.20;;;;;;;;;;4969699;28;20415;-82
2022/04/22 03:46:43;;;;;;;20.90;14.13;;;;;;;;;;4952555;28;20383;-81
2022/04/22 03:49:11;;;;;;;20.13;13.95;;;;;;;;;;4952883;28;20397;-81
2022/04/22 03:51:39;;;;;;;21.00;15.18;;;;;;;;;;4953048;28;20416;-81
2022/04/22 03:54:10;;;;;;;21.38;14.57;;;;;;;;;;4953071;28;20387;-82
2022/04/22 03:59:24;;;;;;;22.83;15.55;;;;;;;;;;4970245;28;20924;-81
2022/04/22 04:01:57;;;;;;;20.13;15.63;;;;;;;;;;4970452;28;21033;-82
2022/04/22 04:04:27;;;;;;;24.88;17.80;;;;;;;;;;4952811;28;20414;-81
2022/04/22 04:06:56;;;;;;;24.27;17.15;;;;;;;;;;4952712;28;20375;-81
2022/04/22 04:17:58;;;;;;;25.38;18.35;;;;;;;;;;4969999;28;20386;-82
2022/04/22 04:23:20;;;;;;;26.63;18.50;;;;;;;;;;4969933;28;20644;-82
2022/04/22 04:25:52;;;;;;;25.45;17.33;;;;;;;;;;4969803;28;20757;-84
2022/04/22 04:28:27;;;;;;;25.38;17.48;;;;;;;;;;4952311;28;20430;-84
2022/04/22 04:30:58;;;;;;;22.73;18.10;;;;;;;;;;4952355;28;20394;-82
2022/04/22 04:33:28;;;;;;;24.97;17.43;;;;;;;;;;4970179;28;20383;-82
2022/04/22 04:35:59;;;;;;;26.25;18.90;;;;;;;;;;4952570;28;20406;-82
2022/04/22 04:38:31;;;;;;;27.42;17.42;;;;;;;;;;4952914;28;20449;-81
2022/04/22 04:41:02;;;;;;;22.48;17.50;;;;;;;;;;4952186;28;20911;-82
2022/04/22 04:43:29;;;;;;;24.27;17.38;;;;;;;;;;4970247;28;20857;-81
2022/04/22 04:45:55;;;;;;;25.02;18.25;;;;;;;;;;4953502;28;20410;-82
2022/04/22 04:48:23;;;;;;;26.85;19.38;;;;;;;;;;4969916;28;20371;-80
2022/04/22 04:50:55;;;;;;;29.88;20.75;;;;;;;;;;4970109;28;20519;-81
2022/04/22 04:53:21;;;;;;;25.77;20.98;;;;;;;;;;4969697;28;20394;-82
2022/04/22 04:55:47;;;;;;;29.30;21.20;;;;;;;;;;4969321;28;20370;-82
2022/04/22 04:58:13;;;;;;;27.73;22.35;;;;;;;;;;4952142;28;20880;-82
2022/04/22 05:00:40;;;;;;;30.23;20.70;;;;;;;;;;4952170;28;20406;-82
2022/04/22 05:03:05;;;;;;;30.73;22.05;;;;;;;;;;4969706;28;20383;-82
2022/04/22 05:05:34;;;;;;;26.92;21.20;;;;;;;;;;4971564;28;20420;-82
2022/04/22 05:08:00;;;;;;;31.35;22.83;;;;;;;;;;4973015;28;20374;-82
2022/04/22 05:10:33;;;;;;;29.50;22.55;;;;;;;;;;4955764;28;20389;-82
2022/04/22 05:13:03;;;;;;;29.55;22.25;;;;;;;;;;4973391;28;20387;-83
2022/04/22 05:15:30;;;;;;;29.30;23.33;;;6.10;99.90;;;;;;4955951;28;20402;-83
2022/04/22 05:17:57;;;;;;;27.35;21.45;;;6.40;99.90;;;;;;4973230;28;20383;-83
2022/04/22 05:20:26;;;;;;;26.95;21.80;;;6.10;99.90;;;;;;4972169;28;20769;-83
2022/04/22 05:22:55;;;;;;;23.45;20.60;;;6.60;99.90;;;;;;4957002;28;20403;-82
2022/04/22 05:25:22;;;;;;;25.10;20.17;;;6.50;99.90;;;;;;4954755;28;20449;-83
2022/04/22 05:27:48;;;;;;;26.00;19.90;;;6.70;99.90;;;;;;4955626;28;20387;-83
2022/04/22 05:33:03;;;;;;;24.17;19.35;;;7.20;99.90;;;;;;4973111;28;20734;-83
2022/04/22 05:35:29;;;;;;;23.73;19.00;;;7.40;99.90;;;;;;4973000;28;20923;-84
2022/04/22 05:38:00;;;;;;;21.67;18.95;;;7.40;99.90;;;;;;4955301;28;20390;-83
2022/04/22 05:40:28;;;;;;;25.75;20.00;;;7.50;99.90;;;;;;4973194;28;20393;-83
2022/04/22 05:42:55;;;;;;;24.73;20.42;;;7.50;99.90;;;;;;4955904;28;20437;-84
2022/04/22 05:45:22;;;;;;;26.75;20.50;;;7.60;99.90;;;;;;4972403;28;20415;-83
2022/04/22 05:47:51;;;;;;;25.37;20.63;;;7.60;99.90;;;;;;4973593;28;20469;-83
2022/04/22 05:50:18;;;;;;;28.30;20.85;;;7.60;99.90;;;;;;4973246;28;20383;-84
2022/04/22 05:52:44;;;;;;;23.38;19.17;;;7.60;99.90;;;;;;4973164;28;20403;-83
2022/04/22 05:55:12;;;;;;;25.00;20.33;;;7.70;99.90;;;;;;4972902;28;20409;-83
2022/04/22 05:57:38;;;;;;;23.85;19.23;;;7.60;99.90;;;;;;4955621;28;20445;-83
2022/04/22 06:00:07;;;;;;;22.92;17.85;;;8.00;99.90;;;;;;4972600;28;20398;-83
2022/04/22 06:02:34;;;;;;;19.30;16.50;;;8.40;99.90;;;;;;4956358;28;20426;-83
2022/04/22 06:04:59;;;;;;;19.73;14.93;;;8.60;99.90;;;;;;4955681;28;20490;-84
2022/04/22 06:07:25;;;;;;;19.70;14.87;;;8.80;99.90;;;;;;4974556;28;20478;-83
2022/04/22 06:12:35;;;;;;;19.53;13.83;;;8.70;99.90;;;;;;4974061;28;21067;-83
2022/04/22 06:15:02;;;;;;;17.93;13.70;;;8.90;99.90;;;;;;4974662;28;20505;-82
2022/04/22 06:17:29;;;;;;;14.32;12.55;;;9.10;99.90;;;;;;4975927;28;20895;-83
2022/04/22 06:19:55;;;;;;;17.98;12.60;;;9.10;99.90;;;;;;4956480;28;20442;-83
2022/04/22 06:22:21;;;;;;;21.08;12.40;;;9.20;99.90;;;;;;4972575;28;20393;-83
2022/04/22 06:24:47;;;;;;;15.93;11.43;;;9.10;99.90;;;;;;4971591;28;20773;-82
2022/04/22 06:27:13;;;;;;;15.20;11.43;;;9.60;99.90;;;;;;4971560;28;20496;-83
2022/04/22 06:29:38;;;;;;;16.00;11.73;;;9.60;99.90;;;;;;4952757;28;20375;-82
2022/04/22 06:32:05;;;;;;;15.85;11.70;;;9.60;99.90;;;;;;4972042;28;20482;-83
2022/04/22 06:34:33;;;;;;;15.35;11.45;;;;;;;;;;4971705;28;20452;-83
2022/04/22 06:36:59;;;;;;;13.25;11.00;;;;;;;;;;4971479;28;21003;-82
2022/04/22 06:45:46;;;;;;;15.02;10.30;;;;;;;;;;4961653;28;21263;-83
2022/04/22 06:47:44;;;;;;;13.67;10.80;;;;;;;;;;4991282;28;20466;-83
2022/04/22 06:50:10;;;;;;;16.92;10.35;;;;;;;;;;4974394;28;20440;-83
2022/04/22 06:52:36;;;;;;;14.50;10.07;;;;;;;;;;4985478;28;20939;-84
2022/04/22 06:55:02;;;;;;;14.20;10.82;;;;;;;;;;4969294;28;20771;-83
2022/04/22 06:57:30;;;;;;;13.33;10.23;;;;;;;;;;4974930;28;20762;-82
2022/04/22 06:59:56;;;;;;;14.13;10.00;;;;;;;;;;4975218;28;20402;-83
2022/04/22 07:02:22;;;;;;;14.18;10.43;;;;;;;;;;4974535;28;20377;-82
2022/04/22 07:04:51;;;;;;;16.25;10.80;;;;;;;;;;4992300;28;20381;-84
2022/04/22 07:07:17;;;;;;;16.85;10.20;;;;;;;;;;4973842;28;20448;-82
2022/04/22 07:09:43;;;;;;;14.77;9.90;;;;;;;;;;4970661;28;20377;-82
2022/04/22 07:12:09;;;;;;;12.88;9.60;;;;;;;;;;4953667;28;20398;-83
2022/04/22 07:14:36;;;;;;;14.93;10.18;;;;;;;;;;4958709;28;20782;-83
2022/04/22 07:17:02;;;;;;;13.63;9.90;;;;;;;;;;4972124;28;20467;-83
2022/04/22 07:19:28;;;;;;;13.45;9.70;;;;;;;;;;4990395;28;20427;-84
2022/04/22 07:21:54;;;;;;;16.30;10.20;;;;;;;;;;4972867;28;20811;-84
2022/04/22 07:24:20;;;;;;;15.52;9.15;;;;;;;;;;4989863;28;20489;-83
2022/04/22 07:26:46;;;;;;;13.68;9.00;;;;;;;;;;4970945;28;20408;-82
2022/04/22 07:29:14;;;;;;;12.07;8.73;;;;;;;;;;4972326;28;20435;-83
2022/04/22 07:31:40;;;;;;;13.37;8.53;;;;;;;;;;4959760;28;20399;-84
2022/04/22 07:34:09;;;;;;;13.65;8.65;;;;;;;;;;4970696;28;20374;-84
2022/04/22 07:36:35;;;;;;;12.38;8.55;;;;;;;;;;4970921;28;20421;-83
2022/04/22 07:39:02;;;;;;;11.77;8.75;;;;;;;;;;4957577;28;20389;-83
2022/04/22 07:41:29;;;;;;;14.57;8.57;;;;;;;;;;4972487;28;20396;-85
2022/04/22 07:46:48;;;;;;;14.23;8.85;;;;;;;;;;4989772;28;20448;-82
2022/04/22 07:49:14;;;;;;;12.97;8.73;;;;;;;;;;4972445;28;20381;-83
2022/04/22 07:51:40;;;;;;;14.38;8.57;;;;;;;;;;4989074;28;20456;-83
2022/04/22 07:54:12;;;;;;;12.87;8.50;;;;;;;;;;4972066;28;20416;-83
2022/04/22 07:56:40;;;;;;;12.05;8.40;;;;;;;;;;4965422;28;20398;-83
2022/04/22 07:59:06;;;;;;;13.20;8.65;;;;;;;;;;4952683;28;20761;-84
2022/04/22 08:01:32;;;;;;;14.93;8.68;;;;;;;;;;4953427;28;20378;-83
2022/04/22 08:03:59;;;;;;;39.80;10.27;;;;;;;;;;4975790;28;21014;-82
2022/04/22 08:06:25;;;;;;;12.15;8.20;;;;;;;;;;4989953;28;20779;-83
2022/04/22 08:08:51;;;;;;;13.63;8.68;;;;;;;;;;4970439;28;20439;-82
2022/04/22 08:11:20;;;;;;;11.40;8.50;;;;;;;;;;4971824;28;20372;-83
2022/04/22 08:13:45;;;;;;;11.65;8.20;;;;;;;;;;4989318;28;20381;-83
2022/04/22 08:16:12;;;;;;;12.68;8.95;;;;;;;;;;4970835;28;20409;-82
2022/04/22 08:18:38;;;;;;;36.92;11.13;;;;;;;;;;4987561;28;20516;-83
2022/04/22 08:21:04;;;;;;;15.27;9.32;;;;;;;;;;4953773;28;20378;-82
2022/04/22 08:23:30;;;;;;;18.27;9.45;;;;;;;;;;4956047;28;20413;-83
2022/04/22 08:25:57;;;;;;;19.70;10.07;;;;;;;;;;4972131;28;20428;-83
2022/04/22 08:28:23;;;;;;;14.27;9.75;;;;;;;;;;4974093;28;20502;-84
2022/04/22 08:30:49;;;;;;;14.48;10.27;;;;;;;;;;4989465;28;20439;-84
2022/04/22 08:33:16;;;;;;;16.48;10.32;;;;;;;;;;4990073;28;20380;-82
2022/04/22 08:35:42;;;;;;;39.95;12.80;;;;;;;;;;4989692;28;20381;-84
2022/04/22 08:38:08;;;;;;;24.02;11.48;;;;;;;;;;4990229;28;20933;-82
2022/04/22 08:40:38;;;;;;;20.87;11.73;;;;;;;;;;4966839;28;20481;-83
2022/04/22 08:43:05;;;;;;;15.45;10.07;;;;;;;;;;4991926;28;20744;-83
2022/04/22 08:45:33;;;;;;;16.17;10.75;;;;;;;;;;4980144;28;20426;-83
2022/04/22 08:50:45;;;;;;;14.90;11.57;;;;;;;;;;4993620;28;20427;-82
2022/04/22 08:53:12;;;;;;;21.25;12.75;;;;;;;;;;4976198;28;20384;-82
2022/04/22 08:55:39;;;;;;;20.17;12.93;;;;;;;;;;4993876;28;20377;-83
2022/04/22 08:58:06;;;;;;;16.42;12.18;;;;;;;;;;4962330;28;20394;-82
2022/04/22 09:00:36;;;;;;;15.93;11.73;;;;;;;;;;4971250;28;20801;-82
2022/04/22 09:03:04;;;;;;;16.38;13.13;;;;;;;;;;4993433;28;20431;-82
2022/04/22 09:05:31;;;;;;;18.50;13.00;;;;;;;;;;4992953;28;20471;-83
2022/04/22 09:07:58;;;;;;;16.38;11.95;;;;;;;;;;4993139;28;20417;-83
2022/04/22 09:10:24;;;;;;;16.95;12.25;;;;;;;;;;4992804;28;20929;-82
2022/04/22 09:12:52;;;;;;;17.45;11.90;;;;;;;;;;4992956;28;20385;-83
2022/04/22 09:15:22;;;;;;;12.70;11.05;;;;;;;;;;4969981;28;20383;-82
2022/04/22 09:17:48;;;;;;;14.70;11.73;;;;;;;;;;4956499;28;20805;-82
2022/04/22 09:20:15;;;;;;;14.13;11.50;;;;;;;;;;4956158;28;20371;-82
2022/04/22 09:22:44;;;;;;;14.38;11.48;;;;;;;;;;4963779;28;20467;-83
2022/04/22 09:25:10;;;;;;;18.40;11.82;;;;;;;;;;4975122;28;20420;-82
2022/04/22 09:27:41;;;;;;;14.93;11.75;;;;;;;;;;4972062;28;20397;-83
2022/04/22 09:30:09;;;;;;;14.68;11.77;;;;;;;;;;4965455;28;20427;-82
2022/04/22 09:32:39;;;;;;;16.48;12.20;;;;;;;;;;4975185;28;20943;-82
2022/04/22 09:35:18;;;;;;;14.98;10.85;;;;;;;;;;4981554;28;20410;-82
2022/04/22 09:43:45;;;;;;;16.50;11.80;;;;;;;;;;4964288;28;21190;-82
2022/04/22 09:46:30;;;;;;;21.75;11.85;;;;;;;;;;4980951;28;20892;-83
2022/04/22 09:48:56;;;;;;;14.27;11.40;;;13.50;99.90;;;;;;4982987;28;20389;-83
2022/04/22 09:51:30;;;;;;;16.00;11.90;;;13.90;99.90;;;;;;4974031;28;20390;-82
2022/04/22 09:54:00;;;;;;;13.40;10.70;;;14.00;99.90;;;;;;4940920;28;20485;-83
2022/04/22 09:56:26;;;;;;;13.50;10.47;;;14.20;99.90;;;;;;4972124;28;20545;-83
2022/04/22 09:58:52;;;;;;;15.10;11.40;;;14.40;99.90;;;;;;4954760;28;21132;-86
2022/04/22 10:01:18;;;;;;;13.43;11.15;;;14.30;99.90;;;;;;4972081;28;20396;-83
2022/04/22 10:03:44;;;;;;;16.27;11.68;;;14.20;99.90;;;;;;4954808;28;20399;-82
2022/04/22 10:06:12;;;;;;;14.98;12.50;;;14.20;99.90;;;;;;4972069;28;20414;-83
2022/04/22 10:08:37;;;;;;;12.98;11.52;;;14.10;99.90;;;;;;4989286;28;20443;-83
2022/04/22 10:11:07;;;;;;;15.23;11.73;;;14.30;99.90;;;;;;4993129;28;20421;-83
2022/04/22 10:13:46;;;;;;;16.10;11.55;;;14.40;99.90;;;;;;4995510;28;20404;-82
2022/04/22 10:16:13;;;;;;;20.10;12.18;;;14.70;99.90;;;;;;4989730;28;20392;-82
2022/04/22 10:18:40;;;;;;;35.67;12.10;;;15.00;99.90;;;;;;4954396;28;20418;-84
2022/04/22 10:21:06;;;;;;;14.13;11.35;;;15.20;99.90;;;;;;4972072;28;20382;-84
2022/04/22 10:23:32;;;;;;;13.10;10.93;;;15.10;99.90;;;;;;4972000;28;20401;-83
2022/04/22 10:25:59;;;;;;;13.93;10.88;;;14.80;99.90;;;;;;4971873;28;20818;-83
2022/04/22 10:28:27;;;;;;;18.00;10.97;;;14.70;99.90;;;;;;4970755;28;20401;-84
2022/04/22 10:30:54;;;;;;;11.88;10.55;;;14.80;99.90;;;;;;4973878;28;20795;-83
2022/04/22 10:33:37;;;;;;;13.37;10.63;;;14.90;99.90;;;;;;4992334;28;20389;-82
2022/04/22 10:36:05;;;;;;;12.60;10.43;;;14.70;99.90;;;;;;4971417;28;20397;-83
2022/04/22 10:38:38;;;;;;;13.48;10.80;;;14.60;99.90;;;;;;4959657;28;20400;-83
2022/04/22 10:41:17;;;;;;;12.93;10.20;;;14.80;99.90;;;;;;4971886;28;20383;-84
2022/04/22 10:49:19;;;;;;;12.80;10.55;;;14.80;99.90;;;;;;4971490;28;20461;-83
2022/04/22 10:52:02;;;;;;;12.25;9.90;;;14.90;99.90;;;;;;4970007;28;20388;-82
2022/04/22 10:54:52;;;;;;;12.38;9.30;;;15.10;99.90;;;;;;4973275;28;20462;-84
2022/04/22 10:57:20;;;;;;;12.27;10.38;;;15.20;99.90;;;;;;4990743;28;20465;-83
2022/04/22 11:00:01;;;;;;;11.25;10.05;;;15.30;99.90;;;;;;4971087;28;20435;-83
2022/04/22 11:02:32;;;;;;;11.20;9.70;;;15.20;99.90;;;;;;4978184;28;20398;-84
2022/04/22 11:05:25;;;;;;;10.65;9.48;;;15.40;99.90;;;;;;4978052;28;20398;-84
2022/04/22 11:07:51;;;;;;;11.38;10.05;;;15.70;99.90;;;;;;4977538;28;20429;-83
2022/04/22 11:10:21;;;;;;;10.60;9.60;;;15.70;99.90;;;;;;4977112;28;20395;-84
2022/04/22 11:13:24;;;;;;;45.83;12.07;;;15.90;99.90;;;;;;4975208;28;21132;-85
2022/04/22 11:15:51;;;;;;;11.95;9.00;;;16.20;99.90;;;;;;4981198;28;20381;-84
2022/04/22 11:18:18;;;;;;;15.07;10.52;;;16.40;99.90;;;;;;4961959;28;20677;-83
2022/04/22 11:21:00;;;;;;;11.00;9.77;;;16.50;99.90;;;;;;4978551;28;20394;-83
2022/04/22 11:23:44;;;;;;;11.95;9.18;;;16.50;99.90;;;;;;4964949;28;20404;-84
2022/04/22 11:26:15;;;;;;;11.50;9.07;;;16.40;99.90;;;;;;4945835;28;20419;-84
2022/04/22 11:28:44;;;;;;;12.27;8.77;;;16.40;99.90;;;;;;4966006;28;20884;-84
2022/04/22 11:31:12;;;;;;;10.65;8.88;;;16.20;99.90;;;;;;4967237;28;20420;-84
2022/04/22 11:33:56;;;;;;;10.10;8.57;;;16.10;99.90;;;;;;4980470;28;20467;-83
2022/04/22 11:36:24;;;;;;;11.40;8.25;;;16.00;99.90;;;;;;4987819;28;20439;-83
2022/04/22 11:38:54;;;;;;;14.05;8.57;;;15.80;99.90;;;;;;4973893;28;20445;-86
2022/04/22 11:41:22;;;;;;;9.83;8.83;;;15.40;99.90;;;;;;4979758;28;20895;-84
2022/04/22 11:43:49;;;;;;;11.40;8.82;;;15.30;99.90;;;;;;4984866;28;20410;-86
2022/04/22 11:46:17;;;;;;;9.75;8.68;;;14.90;99.90;;;;;;4961644;28;20410;-83
2022/04/22 11:48:50;;;;;;;10.73;8.68;;;14.90;99.90;;;;;;4959833;28;20574;-83
2022/04/22 11:51:19;;;;;;;12.85;8.70;;;14.80;99.90;;;;;;4962896;28;20475;-82
2022/04/22 11:53:49;;;;;;;10.82;8.48;;;14.80;99.90;;;;;;4961999;28;20449;-83
2022/04/22 11:56:20;;;;;;;11.20;8.65;;;14.90;99.90;;;;;;4967491;28;20457;-84
2022/04/22 11:58:51;;;;;;;10.70;8.63;;;15.00;99.90;;;;;;4960476;28;20907;-82
2022/04/22 12:07:02;;;;;;;10.82;8.95;;;15.00;99.90;;;;;;4980915;28;20914;-85
2022/04/22 12:09:29;;;;;;;14.60;10.52;;;14.70;99.90;;;;;;4979274;28;20472;-83
2022/04/22 12:12:00;;;;;;;14.45;12.05;;;;;;;;;;4961322;28;20387;-84
2022/04/22 12:14:29;;;;;;;22.50;12.48;;;;;;;;;;4963632;28;20402;-82
2022/04/22 12:17:00;;;;;;;17.52;13.20;;;;;;;;;;4961737;28;20970;-84
2022/04/22 12:19:27;;;;;;;18.75;12.95;;;14.60;99.90;;;;;;4976299;28;20424;-84
2022/04/22 12:21:54;;;;;;;19.05;15.65;;;14.80;99.90;;;;;;4980680;28;20389;-84
2022/04/22 12:24:22;;;;;;;33.35;16.23;;;;;;;;;;4962095;28;20446;-83
2022/04/22 12:26:51;;;;;;;26.05;16.92;;;;;;;;;;4962074;28;20441;-82
2022/04/22 12:29:22;;;;;;;17.80;15.88;;;;;;;;;;4980603;28;20440;-84
2022/04/22 12:31:50;;;;;;;18.88;16.85;;;;;;;;;;4978993;28;20733;-83
2022/04/22 12:34:26;;;;;;;20.48;18.35;;;;;;;;;;4978516;28;20397;-84
2022/04/22 12:36:52;;;;;;;21.45;19.15;;;;;;;;;;4961421;28;20778;-83
2022/04/22 12:39:41;;;;;;;23.20;20.60;;;;;;;;;;4967415;28;20395;-83
2022/04/22 12:42:16;;;;;;;24.88;22.38;;;;;;;;;;4976305;28;20469;-83
2022/04/22 12:52:07;;;;;;;23.75;21.33;;;;;;;;;;4973770;28;20376;-83
2022/04/22 12:52:58;;;;;;;23.88;21.38;;;;;;;;;;4982746;28;20395;-84
2022/04/22 12:55:25;;;;;;;26.25;23.48;;;;;;;;;;4961210;28;20370;-84
2022/04/22 12:58:00;;;;;;;26.02;23.42;;;;;;;;;;4982829;28;20852;-84
2022/04/22 13:00:26;;;;;;;27.80;24.90;;;;;;;;;;4979102;28;20403;-83
2022/04/22 13:02:52;;;;;;;26.90;23.90;;;;;;;;;;4976646;28;20914;-85
2022/04/22 13:05:23;;;;;;;27.00;24.20;;;;;;;;;;4961266;28;20448;-84
2022/04/22 13:07:50;;;;;;;29.33;25.48;;;;;;;;;;4961289;28;20436;-83
2022/04/22 13:10:20;;;;;;;26.20;23.50;;;;;;;;;;4982853;28;20392;-83
2022/04/22 13:12:48;;;;;;;26.13;23.15;;;;;;;;;;4978254;28;20398;-85
2022/04/22 13:15:19;;;;;;;49.35;25.63;;;;;;;;;;4960935;28;20396;-84
2022/04/22 13:17:46;;;;;;;24.65;22.05;;;;;;;;;;4982346;28;20535;-84
2022/04/22 13:20:13;;;;;;;24.67;22.02;;;;;;;;;;4983537;28;20438;-83
2022/04/22 13:22:40;;;;;;;22.63;20.33;;;;;;;;;;4963843;28;20382;-83
2022/04/22 13:25:06;;;;;;;26.55;19.70;;;;;;;;;;4966543;28;20750;-84
2022/04/22 13:27:32;;;;;;;20.70;18.60;;;;;;;;;;4985138;28;20392;-85
2022/04/22 13:30:03;;;;;;;21.25;19.02;;;;;;;;;;4986800;28;20394;-87
2022/04/22 13:32:29;;;;;;;21.33;18.50;;;;;;;;;;4966377;28;20477;-84
2022/04/22 13:34:55;;;;;;;20.98;18.77;;;;;;;;;;4981832;28;20437;-83
2022/04/22 13:37:24;;;;;;;21.67;18.90;;;;;;;;;;4981926;28;20915;-85
2022/04/22 13:39:54;;;;;;;26.65;20.80;;;;;;;;;;4980970;28;20439;-84
2022/04/22 13:42:48;;;;;;;23.25;19.65;;;;;;;;;;4983529;28;20369;-85
2022/04/22 13:53:39;;;;;;;24.15;17.88;;;;;;;;;;4980016;28;20405;-84
2022/04/22 13:56:06;;;;;;;19.58;17.52;;;;;;;;;;4963016;28;20396;-83
2022/04/22 13:58:33;;;;;;;19.95;16.70;;;;;;;;;;4981128;28;20386;-85
2022/04/22 14:01:02;;;;;;;19.15;17.20;;;;;;;;;;4963251;28;20494;-83
2022/04/22 14:03:29;;;;;;;18.40;16.55;;;;;;;;;;4965411;28;20431;-84
2022/04/22 14:05:55;;;;;;;20.42;16.52;;;;;;;;;;4962184;28;20409;-83
2022/04/22 14:08:26;;;;;;;18.20;16.30;;;;;;;;;;4964155;28;20393;-86
2022/04/22 14:10:54;;;;;;;17.75;15.57;;;;;;;;;;4982239;28;20491;-84
2022/04/22 14:13:20;;;;;;;16.97;15.23;;;;;;;;;;4980497;28;20884;-84
2022/04/22 14:15:47;;;;;;;16.90;14.87;;;;;;;;;;4962893;28;20388;-84
2022/04/22 14:18:13;;;;;;;16.60;14.98;;;;;;;;;;4982610;28;20398;-85
2022/04/22 14:20:43;;;;;;;16.25;14.55;;;;;;;;;;4981761;28;20373;-85
2022/04/22 14:23:10;;;;;;;18.73;14.32;;;;;;;;;;4965269;28;21293;-83
2022/04/22 14:25:36;;;;;;;16.48;14.77;;;;;;;;;;4980782;28;20900;-85
2022/04/22 14:28:02;;;;;;;16.90;14.52;;;;;;;;;;4961222;28;20445;-83
2022/04/22 14:30:28;;;;;;;18.13;15.57;;;;;;;;;;4976082;28;20381;-84
2022/04/22 14:32:55;;;;;;;16.58;14.85;;;;;;;;;;4965147;28;20394;-84
2022/04/22 14:35:21;;;;;;;16.65;14.77;;;;;;;;;;4980479;28;20406;-86
2022/04/22 14:37:47;;;;;;;36.17;16.73;;;;;;;;;;4965548;28;20756;-83
2022/04/22 14:40:15;;;;;;;22.42;15.80;;;;;;;;;;4979987;28;20413;-86
2022/04/22 14:42:41;;;;;;;17.52;14.60;;;;;;;;;;4946748;28;20393;-84
2022/04/22 14:45:07;;;;;;;18.00;14.68;;;14.60;99.90;;;;;;4960030;28;20402;-84
2022/04/22 14:47:32;;;;;;;16.23;14.63;;;14.60;99.90;;;;;;4978559;28;20485;-85
2022/04/22 14:49:58;;;;;;;16.40;14.73;;;14.60;99.90;;;;;;4963919;28;20414;-86
2022/04/22 14:52:28;;;;;;;15.67;13.97;;;14.70;99.90;;;;;;4982143;28;20406;-84
2022/04/22 14:54:54;;;;;;;16.35;14.65;;;14.60;99.90;;;;;;4979604;28;20397;-85
2022/04/22 14:57:20;;;;;;;21.60;14.13;;;14.70;99.90;;;;;;4964332;28;20378;-84
2022/04/22 14:59:46;;;;;;;17.17;14.90;;;15.00;99.90;;;;;;4960836;28;20391;-84
2022/04/22 15:02:15;;;;;;;15.82;14.25;;;15.10;99.90;;;;;;4978180;28;20387;-86
2022/04/22 15:04:41;;;;;;;16.42;14.75;;;15.10;99.90;;;;;;4964781;28;20386;-84
2022/04/22 15:07:22;;;;;;;14.45;12.98;;;15.20;99.90;;;;;;4981134;28;20416;-86
2022/04/22 15:09:49;;;;;;;14.38;12.88;;;15.30;99.90;;;;;;4981801;28;20444;-84
2022/04/22 15:12:14;;;;;;;14.38;12.98;;;15.50;99.90;;;;;;4962776;28;20383;-84
2022/04/22 15:14:41;;;;;;;13.82;12.52;;;15.20;99.90;;;;;;4946452;28;21863;-83